createdAt,value
2023-03-12T00:01:24.395Z,15.40
2023-03-12T00:03:51.331Z,19.03
2023-03-12T00:06:18.888Z,17.30
2023-03-12T00:08:45.565Z,12.97
2023-03-12T00:11:15.012Z,13.13
2023-03-12T00:13:42.149Z,18.90
2023-03-12T00:16:14.467Z,12.50
2023-03-12T00:18:42.560Z,17.23
2023-03-12T00:21:09.650Z,17.93
2023-03-12T00:23:37.021Z,12.13
2023-03-12T00:26:06.879Z,16.77
2023-03-12T00:28:33.496Z,14.00
2023-03-12T00:30:59.981Z,14.20
2023-03-12T00:33:29.087Z,12.53
2023-03-12T00:35:56.667Z,17.47
2023-03-12T00:38:23.145Z,13.10
2023-03-12T00:40:49.607Z,15.60
2023-03-12T00:43:16.089Z,15.73
2023-03-12T00:45:42.613Z,22.80
2023-03-12T00:48:09.095Z,12.27
2023-03-12T00:50:35.543Z,10.33
2023-03-12T00:53:01.970Z,16.83
2023-03-12T00:55:29.577Z,13.87
2023-03-12T00:57:56.156Z,10.53
2023-03-12T01:00:22.822Z,13.10
2023-03-12T01:02:49.309Z,11.40
2023-03-12T01:05:16.665Z,14.47
2023-03-12T01:07:43.416Z,10.93
2023-03-12T01:10:13.713Z,13.70
2023-03-12T01:12:40.473Z,12.90
2023-03-12T01:15:07.995Z,18.53
2023-03-12T01:17:34.487Z,19.33
2023-03-12T01:20:00.918Z,13.60
2023-03-12T01:22:27.381Z,15.57
2023-03-12T01:24:53.853Z,14.33
2023-03-12T01:27:20.511Z,14.40
2023-03-12T01:29:47.001Z,15.57
2023-03-12T01:32:13.805Z,12.40
2023-03-12T01:34:40.353Z,15.40
2023-03-12T01:37:07.688Z,13.33
2023-03-12T01:39:34.236Z,12.37
2023-03-12T01:42:01.877Z,12.90
2023-03-12T01:44:29.246Z,14.97
2023-03-12T01:46:55.730Z,10.13
2023-03-12T01:49:34.929Z,12.87
2023-03-12T01:52:09.235Z,12.23
2023-03-12T01:54:41.086Z,11.60
2023-03-12T01:57:13.387Z,10.60
2023-03-12T01:59:47.869Z,15.60
2023-03-12T02:02:15.834Z,10.17
2023-03-12T02:04:45.222Z,14.30
2023-03-12T02:07:17.248Z,19.80
2023-03-12T02:09:47.215Z,12.07
2023-03-12T02:12:13.939Z,15.70
2023-03-12T02:14:41.044Z,10.30
2023-03-12T02:17:08.649Z,12.97
2023-03-12T02:19:53.523Z,12.97
2023-03-12T02:22:21.058Z,13.20
2023-03-12T02:25:04.404Z,10.80
2023-03-12T02:27:33.978Z,15.83
2023-03-12T02:30:01.588Z,17.17
2023-03-12T02:32:33.265Z,12.03
2023-03-12T02:35:00.426Z,11.40
2023-03-12T02:37:26.982Z,11.47
2023-03-12T02:40:19.666Z,10.60
2023-03-12T02:42:46.158Z,9.47
2023-03-12T02:45:12.706Z,12.60
2023-03-12T02:47:39.197Z,11.80
2023-03-12T02:50:06.448Z,15.40
2023-03-12T02:52:35.586Z,10.73
2023-03-12T02:55:02.233Z,11.80
2023-03-12T02:57:28.711Z,13.67
2023-03-12T02:59:55.135Z,12.80
2023-03-12T03:02:21.565Z,12.67
2023-03-12T03:04:47.981Z,13.37
2023-03-12T03:07:14.913Z,14.60
2023-03-12T03:09:41.348Z,16.60
2023-03-12T03:12:07.868Z,10.20
2023-03-12T03:14:34.330Z,10.43
2023-03-12T03:17:00.885Z,15.60
2023-03-12T03:19:27.378Z,16.77
2023-03-12T03:21:53.845Z,14.73
2023-03-12T03:24:20.933Z,10.20
2023-03-12T03:26:47.424Z,20.90
2023-03-12T03:29:14.301Z,12.63
2023-03-12T03:31:40.753Z,11.83
2023-03-12T03:34:07.187Z,10.00
2023-03-12T03:36:33.711Z,10.20
2023-03-12T03:39:00.201Z,12.27
2023-03-12T03:41:26.922Z,11.77
2023-03-12T03:43:58.362Z,12.83
2023-03-12T03:46:25.942Z,11.57
2023-03-12T03:48:52.877Z,13.93
2023-03-12T03:51:19.937Z,11.27
2023-03-12T03:53:46.396Z,17.43
2023-03-12T03:56:15.616Z,11.93
2023-03-12T03:58:42.601Z,14.63
2023-03-12T04:01:09.299Z,11.37
2023-03-12T04:03:36.269Z,13.70
2023-03-12T04:06:05.907Z,9.70
2023-03-12T04:08:35.366Z,12.33
2023-03-12T04:11:19.908Z,10.80
2023-03-12T04:13:47.232Z,13.73
2023-03-12T04:16:14.109Z,16.13
2023-03-12T04:18:40.945Z,12.00
2023-03-12T04:21:08.999Z,11.83
2023-03-12T04:23:36.340Z,11.10
2023-03-12T04:26:03.883Z,10.23
2023-03-12T04:28:30.472Z,12.00
2023-03-12T04:31:01.819Z,10.80
2023-03-12T04:33:30.077Z,15.90
2023-03-12T04:35:57.171Z,11.63
2023-03-12T04:38:25.424Z,11.30
2023-03-12T04:41:07.663Z,11.30
2023-03-12T04:43:35.002Z,13.77
2023-03-12T04:46:02.931Z,10.87
2023-03-12T04:48:29.530Z,10.83
2023-03-12T04:50:56.190Z,10.07
2023-03-12T04:53:23.094Z,11.43
2023-03-12T04:55:50.425Z,14.50
2023-03-12T04:58:17.419Z,10.50
2023-03-12T05:00:44.026Z,13.90
2023-03-12T05:03:10.643Z,12.53
2023-03-12T05:05:37.178Z,15.70
2023-03-12T05:08:04.279Z,11.17
2023-03-12T05:10:30.784Z,11.90
2023-03-12T05:12:57.278Z,11.70
2023-03-12T05:15:23.776Z,21.70
2023-03-12T05:17:50.725Z,12.37
2023-03-12T05:20:21.131Z,11.20
2023-03-12T05:22:47.636Z,13.77
2023-03-12T05:25:14.460Z,13.20
2023-03-12T05:27:40.932Z,14.17
2023-03-12T05:30:07.842Z,11.90
2023-03-12T05:32:34.388Z,13.80
2023-03-12T05:35:00.837Z,11.87
2023-03-12T05:37:27.421Z,15.27
2023-03-12T05:39:54.796Z,12.90
2023-03-12T05:42:21.230Z,12.60
2023-03-12T05:44:47.957Z,14.00
2023-03-12T05:47:14.382Z,14.90
2023-03-12T05:49:40.843Z,11.97
2023-03-12T05:52:07.427Z,15.50
2023-03-12T05:54:33.866Z,15.63
2023-03-12T05:57:00.508Z,18.47
2023-03-12T05:59:27.220Z,11.70
2023-03-12T06:01:53.708Z,14.47
2023-03-12T06:04:20.244Z,11.00
2023-03-12T06:06:46.984Z,12.27
2023-03-12T06:09:13.483Z,13.33
2023-03-12T06:11:39.906Z,11.00
2023-03-12T06:14:06.409Z,12.83
2023-03-12T06:16:32.988Z,13.77
2023-03-12T06:19:02.654Z,10.00
2023-03-12T06:21:31.815Z,17.17
2023-03-12T06:24:03.091Z,13.10
2023-03-12T06:26:29.690Z,10.50
2023-03-12T06:28:56.181Z,11.03
2023-03-12T06:31:24.141Z,11.43
2023-03-12T06:33:51.513Z,11.57
2023-03-12T06:36:18.029Z,17.90
2023-03-12T06:38:44.489Z,13.40
2023-03-12T06:41:17.253Z,12.07
2023-03-12T06:43:44.971Z,12.30
2023-03-12T06:46:17.707Z,14.87
2023-03-12T06:48:46.234Z,15.17
2023-03-12T06:51:14.985Z,10.90
2023-03-12T06:53:42.606Z,11.93
2023-03-12T06:56:09.863Z,14.00
2023-03-12T06:58:36.283Z,14.40
2023-03-12T07:01:03.660Z,13.43
2023-03-12T07:03:30.192Z,14.17
2023-03-12T07:05:57.760Z,12.03
2023-03-12T07:08:25.285Z,12.10
2023-03-12T07:10:51.746Z,14.80
2023-03-12T07:13:18.216Z,13.40
2023-03-12T07:15:46.457Z,10.87
2023-03-12T07:18:13.661Z,12.30
2023-03-12T07:20:42.226Z,12.37
2023-03-12T07:23:09.925Z,14.00
2023-03-12T07:25:39.766Z,15.43
2023-03-12T07:28:07.189Z,14.47
2023-03-12T07:30:34.354Z,13.70
2023-03-12T07:33:05.234Z,17.53
2023-03-12T07:35:32.763Z,16.43
2023-03-12T07:38:00.861Z,14.57
2023-03-12T07:40:28.494Z,19.47
2023-03-12T07:42:54.933Z,13.73
2023-03-12T07:45:22.053Z,19.90
2023-03-12T07:47:49.486Z,17.40
2023-03-12T07:50:17.993Z,13.13
2023-03-12T07:52:45.236Z,13.57
2023-03-12T07:55:12.513Z,12.97
2023-03-12T07:57:39.164Z,17.00
2023-03-12T08:00:10.488Z,16.30
2023-03-12T08:02:37.435Z,15.00
2023-03-12T08:05:04.685Z,13.13
2023-03-12T08:07:34.834Z,15.13
2023-03-12T08:10:02.962Z,13.50
2023-03-12T08:12:29.830Z,13.50
2023-03-12T08:14:59.238Z,12.50
2023-03-12T08:17:26.189Z,15.00
2023-03-12T08:19:52.643Z,11.40
2023-03-12T08:22:19.118Z,15.33
2023-03-12T08:24:45.565Z,13.57
2023-03-12T08:27:14.949Z,15.77
2023-03-12T08:29:41.646Z,12.90
2023-03-12T08:32:10.577Z,14.77
2023-03-12T08:34:37.211Z,16.13
2023-03-12T08:37:03.914Z,12.50
2023-03-12T08:39:30.421Z,18.53
2023-03-12T08:41:56.889Z,12.63
2023-03-12T08:44:23.791Z,15.90
2023-03-12T08:46:51.458Z,15.30
2023-03-12T08:49:18.465Z,15.97
2023-03-12T08:51:45.042Z,15.43
2023-03-12T08:54:11.542Z,12.63
2023-03-12T08:56:41.924Z,14.73
2023-03-12T08:59:10.244Z,16.03
2023-03-12T09:01:37.129Z,16.00
2023-03-12T09:04:05.279Z,16.97
2023-03-12T09:06:33.493Z,12.87
2023-03-12T09:09:04.823Z,11.97
2023-03-12T09:11:33.770Z,17.40
2023-03-12T09:16:47.932Z,14.20
2023-03-12T09:19:14.693Z,13.80
2023-03-12T09:21:41.456Z,13.07
2023-03-12T09:24:08.540Z,13.17
2023-03-12T09:26:34.990Z,15.23
2023-03-12T09:29:01.534Z,13.70
2023-03-12T09:31:28.339Z,14.20
2023-03-12T09:33:54.830Z,14.87
2023-03-12T09:36:21.351Z,15.27
2023-03-12T09:38:47.879Z,15.23
2023-03-12T09:41:27.426Z,21.53
2023-03-12T09:44:02.248Z,11.20
2023-03-12T09:46:42.050Z,12.97
2023-03-12T09:49:19.510Z,17.67
2023-03-12T09:51:54.001Z,14.97
2023-03-12T09:54:29.513Z,17.80
2023-03-12T09:57:00.644Z,18.50
2023-03-12T09:59:27.206Z,11.53
2023-03-12T10:01:59.001Z,15.47
2023-03-12T10:04:58.633Z,12.77
2023-03-12T10:07:38.360Z,12.97
2023-03-12T10:10:19.917Z,17.90
2023-03-12T10:13:01.732Z,14.23
2023-03-12T10:15:43.435Z,12.97
2023-03-12T10:18:19.021Z,12.07
2023-03-12T10:21:03.931Z,12.77
2023-03-12T10:23:49.169Z,14.03
2023-03-12T10:26:18.589Z,11.63
2023-03-12T10:28:51.587Z,14.33
2023-03-12T10:31:34.330Z,11.40
2023-03-12T10:34:03.617Z,19.20
2023-03-12T10:36:33.049Z,11.63
2023-03-12T10:38:59.627Z,11.50
2023-03-12T10:41:32.164Z,12.80
2023-03-12T10:44:07.621Z,13.33
2023-03-12T10:46:37.142Z,11.10
2023-03-12T10:49:36.799Z,15.13
2023-03-12T10:52:05.908Z,12.07
2023-03-12T10:54:38.641Z,13.07
2023-03-12T10:57:05.288Z,11.13
2023-03-12T10:59:35.103Z,13.07
2023-03-12T11:02:02.964Z,11.73
2023-03-12T11:04:32.237Z,14.10
2023-03-12T11:07:04.895Z,12.73
2023-03-12T11:09:31.455Z,13.20
2023-03-12T11:11:58.021Z,14.00
2023-03-12T11:14:29.957Z,12.70
2023-03-12T11:16:57.329Z,12.83
2023-03-12T11:19:33.218Z,12.57
2023-03-12T11:22:08.099Z,13.57
2023-03-12T11:24:35.263Z,15.00
2023-03-12T11:27:28.398Z,12.10
2023-03-12T11:29:55.087Z,16.80
2023-03-12T11:34:57.384Z,14.00
2023-03-12T11:37:26.884Z,13.80
2023-03-12T11:40:24.289Z,13.70
2023-03-12T11:43:29.190Z,15.17
2023-03-12T11:46:22.843Z,14.00
2023-03-12T11:49:05.821Z,14.90
2023-03-12T11:51:41.337Z,18.63
2023-03-12T11:54:32.666Z,17.10
2023-03-12T11:57:09.396Z,16.17
2023-03-12T11:59:38.822Z,19.17
2023-03-12T12:02:15.461Z,17.60
2023-03-12T12:05:00.651Z,14.93
2023-03-12T12:07:30.122Z,13.73
2023-03-12T12:10:11.724Z,20.47
2023-03-12T12:12:59.877Z,27.23
2023-03-12T12:15:32.545Z,19.07
2023-03-12T12:18:17.201Z,17.73
2023-03-12T12:20:49.026Z,16.27
2023-03-12T12:23:29.336Z,20.77
2023-03-12T12:26:17.379Z,17.23
2023-03-12T12:29:16.342Z,18.70
2023-03-12T12:31:54.334Z,25.07
2023-03-12T12:34:29.922Z,18.57
2023-03-12T12:37:19.536Z,20.03
2023-03-12T12:39:52.835Z,24.53
2023-03-12T12:42:26.297Z,23.70
2023-03-12T12:44:55.258Z,24.47
2023-03-12T12:47:34.357Z,24.70
2023-03-12T12:50:02.963Z,26.13
2023-03-12T12:52:29.794Z,29.27
2023-03-12T12:55:16.334Z,23.87
2023-03-12T12:57:49.269Z,29.20
2023-03-12T13:00:22.160Z,34.90
2023-03-12T13:02:49.642Z,29.70
2023-03-12T13:05:45.090Z,33.30
2023-03-12T13:08:37.206Z,32.80
2023-03-12T13:11:25.555Z,31.03
2023-03-12T13:14:14.196Z,37.47
2023-03-12T13:16:45.667Z,37.77
2023-03-12T13:19:15.159Z,37.63
2023-03-12T13:22:02.672Z,38.30
2023-03-12T13:24:53.332Z,35.03
2023-03-12T13:27:25.618Z,36.37
2023-03-12T13:29:57.076Z,37.40
2023-03-12T13:32:37.713Z,33.33
2023-03-12T13:35:27.135Z,46.83
2023-03-12T13:37:53.540Z,39.90
2023-03-12T13:40:29.409Z,41.60
2023-03-12T13:43:02.252Z,47.03
2023-03-12T13:45:31.800Z,44.67
2023-03-12T13:48:01.668Z,45.53
2023-03-12T13:50:30.369Z,45.07
2023-03-12T13:53:02.135Z,44.23
2023-03-12T13:55:31.781Z,38.40
2023-03-12T13:58:07.986Z,43.30
2023-03-12T14:00:47.671Z,46.33
2023-03-12T14:03:20.840Z,44.23
2023-03-12T14:06:05.962Z,54.47
2023-03-12T14:08:40.439Z,47.60
2023-03-12T14:11:33.619Z,50.80
2023-03-12T14:14:05.837Z,47.83
2023-03-12T14:16:46.187Z,48.10
2023-03-12T14:19:14.263Z,54.37
2023-03-12T14:21:43.476Z,37.60
2023-03-12T14:24:30.698Z,51.87
2023-03-12T14:26:57.794Z,38.13
2023-03-12T14:30:38.301Z,37.90
2023-03-12T14:33:05.450Z,45.17
2023-03-12T14:35:43.426Z,32.10
2023-03-12T14:38:23.340Z,30.43
2023-03-12T14:41:00.548Z,36.60
2023-03-12T14:43:30.195Z,30.97
2023-03-12T14:45:58.861Z,30.57
2023-03-12T14:48:31.458Z,27.83
2023-03-12T14:50:59.455Z,27.90
2023-03-12T14:53:32.222Z,40.43
2023-03-12T14:56:05.321Z,33.43
2023-03-12T14:58:33.179Z,44.60
2023-03-12T15:01:05.607Z,33.30
2023-03-12T15:03:40.908Z,27.17
2023-03-12T15:06:15.126Z,32.40
2023-03-12T15:08:43.083Z,38.80
2023-03-12T15:11:10.754Z,43.10
2023-03-12T15:13:39.032Z,34.40
2023-03-12T15:16:06.334Z,40.27
2023-03-12T15:18:33.504Z,39.33
2023-03-12T15:21:02.382Z,37.57
2023-03-12T15:23:32.558Z,32.63
2023-03-12T15:26:22.270Z,36.97
2023-03-12T15:28:57.748Z,38.73
2023-03-12T15:31:24.478Z,39.30
2023-03-12T15:34:06.075Z,32.10
2023-03-12T15:36:34.946Z,47.53
2023-03-12T15:39:12.840Z,46.50
2023-03-12T15:41:48.776Z,34.00
2023-03-12T15:44:19.985Z,39.90
2023-03-12T15:46:48.843Z,44.13
2023-03-12T15:49:28.897Z,37.37
2023-03-12T15:52:00.174Z,39.77
2023-03-12T15:54:29.407Z,39.97
2023-03-12T15:57:12.066Z,39.03
2023-03-12T15:59:38.646Z,42.73
2023-03-12T16:02:11.695Z,41.77
2023-03-12T16:04:38.225Z,42.57
2023-03-12T16:07:12.051Z,38.00
2023-03-12T16:09:38.621Z,30.50
2023-03-12T16:12:05.296Z,41.57
2023-03-12T16:14:34.542Z,51.13
2023-03-12T16:17:01.023Z,34.17
2023-03-12T16:19:29.844Z,31.70
2023-03-12T16:21:56.320Z,42.47
2023-03-12T16:24:22.770Z,44.03
2023-03-12T16:26:55.416Z,31.80
2023-03-12T16:29:26.241Z,33.27
2023-03-12T16:31:56.051Z,39.03
2023-03-12T16:34:22.883Z,42.73
2023-03-12T16:36:49.646Z,45.33
2023-03-12T16:39:18.480Z,33.80
2023-03-12T16:41:45.507Z,43.27
2023-03-12T16:44:19.856Z,42.13
2023-03-12T16:46:46.507Z,32.33
2023-03-12T16:49:18.046Z,43.10
2023-03-12T16:51:44.584Z,40.47
2023-03-12T16:54:12.135Z,38.33
2023-03-12T16:56:43.382Z,36.17
2023-03-12T16:59:26.401Z,30.37
2023-03-12T17:01:52.897Z,35.23
2023-03-12T17:04:19.424Z,33.53
2023-03-12T17:06:45.950Z,39.73
2023-03-12T17:09:12.477Z,26.37
2023-03-12T17:11:39.346Z,36.60
2023-03-12T17:14:17.094Z,33.63
2023-03-12T17:16:43.823Z,36.30
2023-03-12T17:19:10.447Z,32.93
2023-03-12T17:21:37.429Z,36.20
2023-03-12T17:24:04.274Z,36.87
2023-03-12T17:26:30.792Z,32.40
2023-03-12T17:28:57.497Z,35.80
2023-03-12T17:31:24.715Z,40.97
2023-03-12T17:33:52.737Z,45.33
2023-03-12T17:36:19.213Z,30.97
2023-03-12T17:38:45.744Z,35.27
2023-03-12T17:41:25.630Z,33.17
2023-03-12T17:43:53.466Z,36.87
2023-03-12T17:46:20.043Z,36.00
2023-03-12T17:48:46.488Z,26.83
2023-03-12T17:51:12.888Z,32.03
2023-03-12T17:53:39.635Z,24.37
2023-03-12T17:56:06.889Z,38.97
2023-03-12T17:58:36.128Z,34.07
2023-03-12T18:01:02.644Z,35.20
2023-03-12T18:03:29.419Z,41.27
2023-03-12T18:05:55.992Z,36.07
2023-03-12T18:08:22.528Z,34.50
2023-03-12T18:10:49.366Z,31.50
2023-03-12T18:13:15.895Z,43.67
2023-03-12T18:15:42.579Z,34.70
2023-03-12T18:18:09.154Z,30.97
2023-03-12T18:20:39.586Z,31.37
2023-03-12T18:23:06.477Z,42.53
2023-03-12T18:25:33.013Z,39.23
2023-03-12T18:27:59.421Z,44.90
2023-03-12T18:30:26.217Z,37.47
2023-03-12T18:32:52.719Z,36.73
2023-03-12T18:35:19.372Z,38.80
2023-03-12T18:37:48.640Z,34.90
2023-03-12T18:40:15.251Z,33.33
2023-03-12T18:42:44.458Z,45.33
2023-03-12T18:45:12.227Z,37.80
2023-03-12T18:47:39.519Z,38.63
2023-03-12T18:50:10.304Z,32.80
2023-03-12T18:52:36.833Z,32.77
2023-03-12T18:55:04.430Z,41.37
2023-03-12T18:57:31.642Z,39.00
2023-03-12T18:59:59.465Z,41.93
2023-03-12T19:02:26.088Z,42.27
2023-03-12T19:04:55.490Z,36.50
2023-03-12T19:07:22.552Z,35.57
2023-03-12T19:09:48.981Z,39.73
2023-03-12T19:12:15.417Z,32.77
2023-03-12T19:14:42.008Z,35.93
2023-03-12T19:17:08.468Z,44.87
2023-03-12T19:19:34.881Z,37.00
2023-03-12T19:22:01.407Z,25.60
2023-03-12T19:24:27.892Z,35.03
2023-03-12T19:26:54.300Z,25.40
2023-03-12T19:29:20.804Z,45.80
2023-03-12T19:31:47.368Z,24.13
2023-03-12T19:34:13.910Z,29.90
2023-03-12T19:36:40.430Z,39.70
2023-03-12T19:39:18.783Z,34.80
2023-03-12T19:41:46.840Z,40.60
2023-03-12T19:44:13.299Z,43.67
2023-03-12T19:46:42.932Z,32.70
2023-03-12T19:49:09.639Z,34.87
2023-03-12T19:51:36.296Z,41.97
2023-03-12T19:54:02.809Z,32.37
2023-03-12T19:56:29.360Z,33.87
2023-03-12T19:58:55.930Z,39.73
2023-03-12T20:01:22.890Z,34.00
2023-03-12T20:03:49.437Z,38.03
2023-03-12T20:06:15.907Z,27.70
2023-03-12T20:08:42.353Z,29.03
2023-03-12T20:11:10.534Z,35.23
2023-03-12T20:13:40.347Z,33.50
2023-03-12T20:16:07.969Z,43.53
2023-03-12T20:18:34.551Z,39.73
2023-03-12T20:21:01.095Z,47.97
2023-03-12T20:23:27.653Z,31.50
2023-03-12T20:25:54.134Z,31.90
2023-03-12T20:28:20.654Z,40.53
2023-03-12T20:30:48.441Z,44.50
2023-03-12T20:33:14.991Z,35.67
2023-03-12T20:35:41.522Z,31.57
2023-03-12T20:38:08.420Z,35.03
2023-03-12T20:40:34.971Z,36.93
2023-03-12T20:43:04.720Z,43.73
2023-03-12T20:45:33.133Z,37.53
2023-03-12T20:48:00.075Z,37.13
2023-03-12T20:50:27.245Z,35.87
2023-03-12T20:52:53.754Z,31.73
2023-03-12T20:55:20.683Z,38.57
2023-03-12T20:57:48.034Z,38.23
2023-03-12T21:00:14.775Z,32.13
2023-03-12T21:02:41.358Z,35.57
2023-03-12T21:05:10.314Z,34.27
2023-03-12T21:07:36.847Z,45.27
2023-03-12T21:10:03.934Z,31.37
2023-03-12T21:12:30.381Z,48.47
2023-03-12T21:15:05.905Z,23.13
2023-03-12T21:17:42.312Z,34.20
2023-03-12T21:20:17.486Z,39.00
2023-03-12T21:22:44.432Z,25.50
2023-03-12T21:25:11.828Z,30.73
2023-03-12T21:27:50.021Z,25.33
2023-03-12T21:30:17.494Z,30.17
2023-03-12T21:32:43.995Z,35.13
2023-03-12T21:35:10.945Z,32.30
2023-03-12T21:37:37.486Z,31.73
2023-03-12T21:40:05.035Z,35.17
2023-03-12T21:42:33.414Z,33.20
2023-03-12T21:45:03.136Z,30.23
2023-03-12T21:47:29.607Z,31.43
2023-03-12T21:49:56.127Z,36.67
2023-03-12T21:52:22.611Z,34.23
2023-03-12T21:54:49.227Z,34.13
2023-03-12T21:57:15.666Z,32.10
2023-03-12T21:59:42.103Z,30.03
2023-03-12T22:02:12.105Z,34.00
2023-03-12T22:04:41.543Z,31.03
2023-03-12T22:07:08.124Z,31.93
2023-03-12T22:09:34.561Z,27.10
2023-03-12T22:12:01.825Z,40.13
2023-03-12T22:14:28.756Z,27.47
2023-03-12T22:16:55.319Z,27.77
2023-03-12T22:19:21.879Z,28.77
2023-03-12T22:21:48.360Z,26.33
2023-03-12T22:24:14.812Z,40.07
2023-03-12T22:26:41.245Z,32.67
2023-03-12T22:29:15.715Z,36.00
2023-03-12T22:31:42.174Z,35.90
2023-03-12T22:34:11.658Z,31.57
2023-03-12T22:36:39.532Z,37.40
2023-03-12T22:39:05.974Z,33.77
2023-03-12T22:41:33.014Z,38.83
2023-03-12T22:44:07.480Z,33.07
2023-03-12T22:46:34.465Z,32.17
2023-03-12T22:49:02.986Z,36.17
2023-03-12T22:51:32.019Z,42.90
2023-03-12T22:54:01.449Z,29.93
2023-03-12T22:56:28.634Z,31.87
2023-03-12T22:58:55.794Z,28.17
2023-03-12T23:01:23.699Z,29.10
2023-03-12T23:03:50.734Z,32.37
2023-03-12T23:06:20.355Z,34.70
2023-03-12T23:08:48.011Z,33.10
2023-03-12T23:11:16.023Z,28.60
2023-03-12T23:13:44.592Z,33.43
2023-03-12T23:16:17.166Z,32.80
2023-03-12T23:18:44.476Z,24.20
2023-03-12T23:21:14.688Z,40.70
2023-03-12T23:23:45.466Z,24.83
2023-03-12T23:26:24.459Z,25.90
2023-03-12T23:28:53.509Z,36.83
2023-03-12T23:31:23.500Z,27.63
2023-03-12T23:33:51.221Z,31.07
2023-03-12T23:36:20.580Z,39.17
2023-03-12T23:38:48.420Z,32.90
2023-03-12T23:41:27.045Z,28.10
2023-03-12T23:43:53.704Z,27.13
2023-03-12T23:46:20.499Z,28.50
2023-03-12T23:48:47.827Z,34.63
2023-03-12T23:51:17.656Z,31.00
2023-03-12T23:53:47.155Z,29.13
2023-03-12T23:56:17.033Z,30.97
2023-03-12T23:58:44.918Z,26.97
